sensor_id;sensor_type;location;lat;lon;timestamp;P1;durP1;ratioP1;P2;durP2;ratioP2
25982;SDS011;13773;48.868;10.730;2022-11-24T00:01:24;18.50;;;4.20;;
25982;SDS011;13773;48.868;10.730;2022-11-24T00:03:56;12.60;;;3.83;;
25982;SDS011;13773;48.868;10.730;2022-11-24T00:06:22;10.93;;;3.90;;
25982;SDS011;13773;48.868;10.730;2022-11-24T00:08:48;16.27;;;3.40;;
25982;SDS011;13773;48.868;10.730;2022-11-24T00:11:15;15.63;;;3.70;;
25982;SDS011;13773;48.868;10.730;2022-11-24T00:13:50;9.50;;;3.60;;
25982;SDS011;13773;48.868;10.730;2022-11-24T00:16:17;14.30;;;3.90;;
25982;SDS011;13773;48.868;10.730;2022-11-24T00:18:45;17.03;;;5.30;;
25982;SDS011;13773;48.868;10.730;2022-11-24T00:21:13;13.90;;;4.20;;
25982;SDS011;13773;48.868;10.730;2022-11-24T00:23:39;12.47;;;3.90;;
25982;SDS011;13773;48.868;10.730;2022-11-24T00:26:11;22.20;;;4.87;;
25982;SDS011;13773;48.868;10.730;2022-11-24T00:28:39;14.27;;;4.60;;
25982;SDS011;13773;48.868;10.730;2022-11-24T00:31:13;13.50;;;4.10;;
25982;SDS011;13773;48.868;10.730;2022-11-24T00:33:43;16.80;;;4.47;;
25982;SDS011;13773;48.868;10.730;2022-11-24T00:36:10;16.70;;;4.67;;
25982;SDS011;13773;48.868;10.730;2022-11-24T00:38:36;9.43;;;3.63;;
25982;SDS011;13773;48.868;10.730;2022-11-24T00:41:02;18.63;;;4.67;;
25982;SDS011;13773;48.868;10.730;2022-11-24T00:43:28;10.30;;;3.70;;
25982;SDS011;13773;48.868;10.730;2022-11-24T00:45:54;14.43;;;4.57;;
25982;SDS011;13773;48.868;10.730;2022-11-24T00:48:20;11.63;;;3.83;;
25982;SDS011;13773;48.868;10.730;2022-11-24T00:51:00;11.83;;;3.57;;
25982;SDS011;13773;48.868;10.730;2022-11-24T00:53:27;16.40;;;4.50;;
25982;SDS011;13773;48.868;10.730;2022-11-24T00:55:53;19.10;;;5.80;;
25982;SDS011;13773;48.868;10.730;2022-11-24T00:58:19;15.60;;;4.87;;
25982;SDS011;13773;48.868;10.730;2022-11-24T01:00:46;11.20;;;4.00;;
25982;SDS011;13773;48.868;10.730;2022-11-24T01:03:12;13.87;;;4.37;;
25982;SDS011;13773;48.868;10.730;2022-11-24T01:05:38;15.00;;;3.77;;
25982;SDS011;13773;48.868;10.730;2022-11-24T01:08:06;10.47;;;4.00;;
25982;SDS011;13773;48.868;10.730;2022-11-24T01:10:32;13.67;;;3.70;;
25982;SDS011;13773;48.868;10.730;2022-11-24T01:12:58;21.07;;;4.03;;
25982;SDS011;13773;48.868;10.730;2022-11-24T01:15:24;14.47;;;4.67;;
25982;SDS011;13773;48.868;10.730;2022-11-24T01:17:50;13.83;;;3.80;;
25982;SDS011;13773;48.868;10.730;2022-11-24T01:20:16;13.03;;;4.07;;
25982;SDS011;13773;48.868;10.730;2022-11-24T01:22:42;16.93;;;4.30;;
25982;SDS011;13773;48.868;10.730;2022-11-24T01:25:08;12.17;;;4.00;;
25982;SDS011;13773;48.868;10.730;2022-11-24T01:27:35;16.83;;;4.40;;
25982;SDS011;13773;48.868;10.730;2022-11-24T01:30:02;13.00;;;3.63;;
25982;SDS011;13773;48.868;10.730;2022-11-24T01:32:29;16.33;;;3.93;;
25982;SDS011;13773;48.868;10.730;2022-11-24T01:34:57;20.33;;;4.83;;
25982;SDS011;13773;48.868;10.730;2022-11-24T01:37:23;16.07;;;4.47;;
25982;SDS011;13773;48.868;10.730;2022-11-24T01:39:49;18.57;;;4.93;;
25982;SDS011;13773;48.868;10.730;2022-11-24T01:42:14;17.67;;;4.80;;
25982;SDS011;13773;48.868;10.730;2022-11-24T01:44:40;15.83;;;6.33;;
25982;SDS011;13773;48.868;10.730;2022-11-24T01:47:29;18.00;;;5.23;;
25982;SDS011;13773;48.868;10.730;2022-11-24T01:49:57;15.60;;;4.70;;
25982;SDS011;13773;48.868;10.730;2022-11-24T01:52:39;18.83;;;4.77;;
25982;SDS011;13773;48.868;10.730;2022-11-24T01:55:15;13.27;;;4.67;;
25982;SDS011;13773;48.868;10.730;2022-11-24T01:57:49;10.63;;;4.50;;
25982;SDS011;13773;48.868;10.730;2022-11-24T02:00:20;13.53;;;4.40;;
25982;SDS011;13773;48.868;10.730;2022-11-24T02:02:46;10.63;;;4.40;;
25982;SDS011;13773;48.868;10.730;2022-11-24T02:05:20;14.17;;;4.30;;
25982;SDS011;13773;48.868;10.730;2022-11-24T02:07:50;14.23;;;4.20;;
25982;SDS011;13773;48.868;10.730;2022-11-24T02:10:18;11.30;;;3.97;;
25982;SDS011;13773;48.868;10.730;2022-11-24T02:12:46;15.87;;;4.63;;
25982;SDS011;13773;48.868;10.730;2022-11-24T02:15:13;14.70;;;3.90;;
25982;SDS011;13773;48.868;10.730;2022-11-24T02:17:40;14.67;;;4.20;;
25982;SDS011;13773;48.868;10.730;2022-11-24T02:20:07;15.57;;;4.93;;
25982;SDS011;13773;48.868;10.730;2022-11-24T02:22:38;16.27;;;4.10;;
25982;SDS011;13773;48.868;10.730;2022-11-24T02:25:49;14.93;;;4.10;;
25982;SDS011;13773;48.868;10.730;2022-11-24T02:28:17;10.50;;;3.30;;
25982;SDS011;13773;48.868;10.730;2022-11-24T02:30:45;11.07;;;3.80;;
25982;SDS011;13773;48.868;10.730;2022-11-24T02:33:12;16.27;;;4.37;;
25982;SDS011;13773;48.868;10.730;2022-11-24T02:35:38;12.13;;;3.93;;
25982;SDS011;13773;48.868;10.730;2022-11-24T02:38:04;15.40;;;4.47;;
25982;SDS011;13773;48.868;10.730;2022-11-24T02:40:30;11.10;;;4.00;;
25982;SDS011;13773;48.868;10.730;2022-11-24T02:43:01;14.23;;;4.43;;
25982;SDS011;13773;48.868;10.730;2022-11-24T02:45:31;19.33;;;5.10;;
25982;SDS011;13773;48.868;10.730;2022-11-24T02:47:57;16.97;;;5.10;;
25982;SDS011;13773;48.868;10.730;2022-11-24T02:50:23;21.23;;;5.53;;
25982;SDS011;13773;48.868;10.730;2022-11-24T02:52:49;14.73;;;6.00;;
25982;SDS011;13773;48.868;10.730;2022-11-24T02:55:15;15.53;;;6.23;;
25982;SDS011;13773;48.868;10.730;2022-11-24T02:57:40;13.93;;;5.23;;
25982;SDS011;13773;48.868;10.730;2022-11-24T03:00:07;12.27;;;5.67;;
25982;SDS011;13773;48.868;10.730;2022-11-24T03:02:33;11.93;;;5.70;;
25982;SDS011;13773;48.868;10.730;2022-11-24T03:04:59;9.97;;;5.47;;
25982;SDS011;13773;48.868;10.730;2022-11-24T03:07:24;13.97;;;5.73;;
25982;SDS011;13773;48.868;10.730;2022-11-24T03:09:50;14.70;;;6.00;;
25982;SDS011;13773;48.868;10.730;2022-11-24T03:12:16;15.70;;;6.67;;
25982;SDS011;13773;48.868;10.730;2022-11-24T03:14:42;17.03;;;6.43;;
25982;SDS011;13773;48.868;10.730;2022-11-24T03:17:08;12.87;;;5.57;;
25982;SDS011;13773;48.868;10.730;2022-11-24T03:19:33;17.53;;;6.83;;
25982;SDS011;13773;48.868;10.730;2022-11-24T03:21:59;14.50;;;6.90;;
25982;SDS011;13773;48.868;10.730;2022-11-24T03:24:25;14.00;;;5.80;;
25982;SDS011;13773;48.868;10.730;2022-11-24T03:26:51;13.60;;;6.00;;
25982;SDS011;13773;48.868;10.730;2022-11-24T03:29:16;13.10;;;6.17;;
25982;SDS011;13773;48.868;10.730;2022-11-24T03:31:42;12.27;;;5.70;;
25982;SDS011;13773;48.868;10.730;2022-11-24T03:34:08;15.30;;;5.90;;
25982;SDS011;13773;48.868;10.730;2022-11-24T03:36:33;12.63;;;6.40;;
25982;SDS011;13773;48.868;10.730;2022-11-24T03:38:59;12.00;;;6.13;;
25982;SDS011;13773;48.868;10.730;2022-11-24T03:41:25;11.30;;;6.07;;
25982;SDS011;13773;48.868;10.730;2022-11-24T03:43:51;21.20;;;6.07;;
25982;SDS011;13773;48.868;10.730;2022-11-24T03:46:16;12.07;;;5.33;;
25982;SDS011;13773;48.868;10.730;2022-11-24T03:48:42;15.10;;;5.67;;
25982;SDS011;13773;48.868;10.730;2022-11-24T03:51:08;14.23;;;5.67;;
25982;SDS011;13773;48.868;10.730;2022-11-24T03:53:34;12.80;;;5.90;;
25982;SDS011;13773;48.868;10.730;2022-11-24T03:56:00;16.27;;;5.27;;
25982;SDS011;13773;48.868;10.730;2022-11-24T03:58:26;14.63;;;5.57;;
25982;SDS011;13773;48.868;10.730;2022-11-24T04:00:53;12.80;;;5.40;;
25982;SDS011;13773;48.868;10.730;2022-11-24T04:03:20;11.70;;;5.07;;
25982;SDS011;13773;48.868;10.730;2022-11-24T04:05:46;11.90;;;4.70;;
25982;SDS011;13773;48.868;10.730;2022-11-24T04:08:12;12.50;;;4.47;;
25982;SDS011;13773;48.868;10.730;2022-11-24T04:10:38;9.43;;;5.07;;
25982;SDS011;13773;48.868;10.730;2022-11-24T04:13:09;19.23;;;4.90;;
25982;SDS011;13773;48.868;10.730;2022-11-24T04:15:37;9.93;;;4.27;;
25982;SDS011;13773;48.868;10.730;2022-11-24T04:18:05;13.73;;;4.60;;
25982;SDS011;13773;48.868;10.730;2022-11-24T04:20:31;10.50;;;4.40;;
25982;SDS011;13773;48.868;10.730;2022-11-24T04:22:57;13.37;;;4.77;;
25982;SDS011;13773;48.868;10.730;2022-11-24T04:25:23;12.90;;;3.70;;
25982;SDS011;13773;48.868;10.730;2022-11-24T04:27:49;10.03;;;3.67;;
25982;SDS011;13773;48.868;10.730;2022-11-24T04:30:18;8.00;;;3.57;;
25982;SDS011;13773;48.868;10.730;2022-11-24T04:32:44;12.33;;;4.13;;
25982;SDS011;13773;48.868;10.730;2022-11-24T04:35:10;10.87;;;3.83;;
25982;SDS011;13773;48.868;10.730;2022-11-24T04:37:36;10.97;;;4.37;;
25982;SDS011;13773;48.868;10.730;2022-11-24T04:40:02;16.43;;;4.17;;
25982;SDS011;13773;48.868;10.730;2022-11-24T04:42:29;10.20;;;4.80;;
25982;SDS011;13773;48.868;10.730;2022-11-24T04:44:54;9.13;;;3.90;;
25982;SDS011;13773;48.868;10.730;2022-11-24T04:47:21;13.13;;;4.37;;
25982;SDS011;13773;48.868;10.730;2022-11-24T04:49:48;6.73;;;3.57;;
25982;SDS011;13773;48.868;10.730;2022-11-24T04:52:18;7.43;;;3.33;;
25982;SDS011;13773;48.868;10.730;2022-11-24T04:54:45;6.67;;;3.50;;
25982;SDS011;13773;48.868;10.730;2022-11-24T04:57:15;8.93;;;3.77;;
25982;SDS011;13773;48.868;10.730;2022-11-24T04:59:42;9.03;;;4.03;;
25982;SDS011;13773;48.868;10.730;2022-11-24T05:02:08;7.17;;;4.00;;
25982;SDS011;13773;48.868;10.730;2022-11-24T05:04:34;14.10;;;4.93;;
25982;SDS011;13773;48.868;10.730;2022-11-24T05:07:00;8.70;;;4.90;;
25982;SDS011;13773;48.868;10.730;2022-11-24T05:09:26;10.30;;;5.10;;
25982;SDS011;13773;48.868;10.730;2022-11-24T05:11:53;12.83;;;5.50;;
25982;SDS011;13773;48.868;10.730;2022-11-24T05:14:18;15.37;;;5.53;;
25982;SDS011;13773;48.868;10.730;2022-11-24T05:16:44;10.20;;;4.90;;
25982;SDS011;13773;48.868;10.730;2022-11-24T05:19:10;8.77;;;5.50;;
25982;SDS011;13773;48.868;10.730;2022-11-24T05:21:36;8.47;;;4.83;;
25982;SDS011;13773;48.868;10.730;2022-11-24T05:24:01;10.07;;;5.50;;
25982;SDS011;13773;48.868;10.730;2022-11-24T05:26:27;10.00;;;6.00;;
25982;SDS011;13773;48.868;10.730;2022-11-24T05:28:53;10.37;;;5.97;;
25982;SDS011;13773;48.868;10.730;2022-11-24T05:31:19;13.93;;;6.53;;
25982;SDS011;13773;48.868;10.730;2022-11-24T05:33:45;10.50;;;6.60;;
25982;SDS011;13773;48.868;10.730;2022-11-24T05:36:10;11.27;;;7.13;;
25982;SDS011;13773;48.868;10.730;2022-11-24T05:38:56;12.83;;;6.53;;
25982;SDS011;13773;48.868;10.730;2022-11-24T05:41:22;11.47;;;6.20;;
25982;SDS011;13773;48.868;10.730;2022-11-24T05:43:47;12.47;;;6.30;;
25982;SDS011;13773;48.868;10.730;2022-11-24T05:46:13;11.00;;;5.43;;
25982;SDS011;13773;48.868;10.730;2022-11-24T05:48:39;12.50;;;5.33;;
25982;SDS011;13773;48.868;10.730;2022-11-24T05:51:04;8.37;;;5.43;;
25982;SDS011;13773;48.868;10.730;2022-11-24T05:53:30;7.90;;;5.30;;
25982;SDS011;13773;48.868;10.730;2022-11-24T05:55:56;7.50;;;5.37;;
25982;SDS011;13773;48.868;10.730;2022-11-24T05:58:22;11.10;;;5.23;;
25982;SDS011;13773;48.868;10.730;2022-11-24T06:00:47;7.87;;;5.20;;
25982;SDS011;13773;48.868;10.730;2022-11-24T06:03:13;12.17;;;5.20;;
25982;SDS011;13773;48.868;10.730;2022-11-24T06:05:39;9.87;;;4.53;;
25982;SDS011;13773;48.868;10.730;2022-11-24T06:08:09;8.90;;;4.33;;
25982;SDS011;13773;48.868;10.730;2022-11-24T06:10:35;7.33;;;4.47;;
25982;SDS011;13773;48.868;10.730;2022-11-24T06:13:03;8.93;;;5.47;;
25982;SDS011;13773;48.868;10.730;2022-11-24T06:15:30;8.63;;;4.60;;
25982;SDS011;13773;48.868;10.730;2022-11-24T06:17:57;9.03;;;4.67;;
25982;SDS011;13773;48.868;10.730;2022-11-24T06:20:23;7.53;;;4.37;;
25982;SDS011;13773;48.868;10.730;2022-11-24T06:22:49;9.90;;;5.63;;
25982;SDS011;13773;48.868;10.730;2022-11-24T06:25:14;12.80;;;6.90;;
25982;SDS011;13773;48.868;10.730;2022-11-24T06:27:41;14.43;;;5.50;;
25982;SDS011;13773;48.868;10.730;2022-11-24T06:30:07;7.93;;;5.83;;
25982;SDS011;13773;48.868;10.730;2022-11-24T06:32:33;9.80;;;6.00;;
25982;SDS011;13773;48.868;10.730;2022-11-24T06:34:59;15.40;;;6.33;;
25982;SDS011;13773;48.868;10.730;2022-11-24T06:37:24;10.10;;;5.30;;
25982;SDS011;13773;48.868;10.730;2022-11-24T06:39:50;10.20;;;5.30;;
25982;SDS011;13773;48.868;10.730;2022-11-24T06:42:16;8.20;;;5.20;;
25982;SDS011;13773;48.868;10.730;2022-11-24T06:44:44;9.70;;;5.10;;
25982;SDS011;13773;48.868;10.730;2022-11-24T06:47:11;12.40;;;5.50;;
25982;SDS011;13773;48.868;10.730;2022-11-24T06:49:38;8.50;;;5.50;;
25982;SDS011;13773;48.868;10.730;2022-11-24T06:52:04;14.23;;;5.70;;
25982;SDS011;13773;48.868;10.730;2022-11-24T06:54:29;10.53;;;5.30;;
25982;SDS011;13773;48.868;10.730;2022-11-24T06:56:56;11.00;;;5.87;;
25982;SDS011;13773;48.868;10.730;2022-11-24T06:59:22;11.57;;;5.93;;
25982;SDS011;13773;48.868;10.730;2022-11-24T07:01:48;11.47;;;5.70;;
25982;SDS011;13773;48.868;10.730;2022-11-24T07:04:14;11.87;;;6.40;;
25982;SDS011;13773;48.868;10.730;2022-11-24T07:06:41;9.17;;;5.70;;
25982;SDS011;13773;48.868;10.730;2022-11-24T07:09:10;11.93;;;6.13;;
25982;SDS011;13773;48.868;10.730;2022-11-24T07:11:37;8.47;;;5.20;;
25982;SDS011;13773;48.868;10.730;2022-11-24T07:14:04;8.30;;;4.93;;
25982;SDS011;13773;48.868;10.730;2022-11-24T07:16:30;12.53;;;5.80;;
25982;SDS011;13773;48.868;10.730;2022-11-24T07:18:56;7.73;;;5.47;;
25982;SDS011;13773;48.868;10.730;2022-11-24T07:21:22;10.03;;;4.90;;
25982;SDS011;13773;48.868;10.730;2022-11-24T07:23:49;8.70;;;4.90;;
25982;SDS011;13773;48.868;10.730;2022-11-24T07:26:16;9.83;;;4.80;;
25982;SDS011;13773;48.868;10.730;2022-11-24T07:28:42;13.00;;;6.53;;
25982;SDS011;13773;48.868;10.730;2022-11-24T07:31:09;11.40;;;4.97;;
25982;SDS011;13773;48.868;10.730;2022-11-24T07:33:36;9.10;;;5.87;;
25982;SDS011;13773;48.868;10.730;2022-11-24T07:36:03;13.33;;;5.17;;
25982;SDS011;13773;48.868;10.730;2022-11-24T07:38:30;10.60;;;4.90;;
25982;SDS011;13773;48.868;10.730;2022-11-24T07:41:00;9.10;;;5.20;;
25982;SDS011;13773;48.868;10.730;2022-11-24T07:43:27;11.13;;;4.70;;
25982;SDS011;13773;48.868;10.730;2022-11-24T07:45:56;11.20;;;4.27;;
25982;SDS011;13773;48.868;10.730;2022-11-24T07:48:23;12.80;;;4.60;;
25982;SDS011;13773;48.868;10.730;2022-11-24T07:50:50;10.10;;;4.27;;
25982;SDS011;13773;48.868;10.730;2022-11-24T07:53:17;16.23;;;4.73;;
25982;SDS011;13773;48.868;10.730;2022-11-24T07:55:51;11.63;;;4.10;;
25982;SDS011;13773;48.868;10.730;2022-11-24T07:58:20;7.43;;;4.30;;
25982;SDS011;13773;48.868;10.730;2022-11-24T08:00:48;11.33;;;4.17;;
25982;SDS011;13773;48.868;10.730;2022-11-24T08:03:15;12.87;;;4.80;;
25982;SDS011;13773;48.868;10.730;2022-11-24T08:05:51;11.97;;;3.90;;
25982;SDS011;13773;48.868;10.730;2022-11-24T08:08:21;13.10;;;4.87;;
25982;SDS011;13773;48.868;10.730;2022-11-24T08:10:50;14.00;;;4.63;;
25982;SDS011;13773;48.868;10.730;2022-11-24T08:13:16;9.03;;;3.97;;
25982;SDS011;13773;48.868;10.730;2022-11-24T08:15:43;13.17;;;4.30;;
25982;SDS011;13773;48.868;10.730;2022-11-24T08:18:09;12.33;;;4.20;;
25982;SDS011;13773;48.868;10.730;2022-11-24T08:20:36;7.63;;;4.30;;
25982;SDS011;13773;48.868;10.730;2022-11-24T08:23:04;12.70;;;3.73;;
25982;SDS011;13773;48.868;10.730;2022-11-24T08:25:30;18.57;;;4.70;;
25982;SDS011;13773;48.868;10.730;2022-11-24T08:27:57;9.43;;;3.73;;
25982;SDS011;13773;48.868;10.730;2022-11-24T08:30:24;10.10;;;4.03;;
25982;SDS011;13773;48.868;10.730;2022-11-24T08:32:51;9.70;;;3.50;;
25982;SDS011;13773;48.868;10.730;2022-11-24T08:35:18;10.20;;;3.60;;
25982;SDS011;13773;48.868;10.730;2022-11-24T08:37:45;12.90;;;3.77;;
25982;SDS011;13773;48.868;10.730;2022-11-24T08:40:12;10.70;;;3.57;;
25982;SDS011;13773;48.868;10.730;2022-11-24T08:42:37;11.73;;;3.80;;
25982;SDS011;13773;48.868;10.730;2022-11-24T08:45:04;9.23;;;3.77;;
25982;SDS011;13773;48.868;10.730;2022-11-24T08:47:30;13.03;;;3.80;;
25982;SDS011;13773;48.868;10.730;2022-11-24T08:49:56;12.50;;;3.87;;
25982;SDS011;13773;48.868;10.730;2022-11-24T08:52:21;8.00;;;3.27;;
25982;SDS011;13773;48.868;10.730;2022-11-24T08:54:47;10.03;;;3.47;;
25982;SDS011;13773;48.868;10.730;2022-11-24T08:57:14;12.10;;;3.83;;
25982;SDS011;13773;48.868;10.730;2022-11-24T08:59:40;12.07;;;3.73;;
25982;SDS011;13773;48.868;10.730;2022-11-24T09:02:08;10.07;;;3.33;;
25982;SDS011;13773;48.868;10.730;2022-11-24T09:04:36;13.70;;;4.10;;
25982;SDS011;13773;48.868;10.730;2022-11-24T09:07:02;11.50;;;3.03;;
25982;SDS011;13773;48.868;10.730;2022-11-24T09:09:28;10.33;;;4.00;;
25982;SDS011;13773;48.868;10.730;2022-11-24T09:11:54;13.57;;;3.80;;
25982;SDS011;13773;48.868;10.730;2022-11-24T09:14:19;10.50;;;3.10;;
25982;SDS011;13773;48.868;10.730;2022-11-24T09:16:45;11.07;;;3.23;;
25982;SDS011;13773;48.868;10.730;2022-11-24T09:19:11;11.30;;;4.10;;
25982;SDS011;13773;48.868;10.730;2022-11-24T09:21:37;11.00;;;3.77;;
25982;SDS011;13773;48.868;10.730;2022-11-24T09:24:03;12.73;;;4.80;;
25982;SDS011;13773;48.868;10.730;2022-11-24T09:26:31;15.60;;;4.47;;
25982;SDS011;13773;48.868;10.730;2022-11-24T09:28:59;10.97;;;3.57;;
25982;SDS011;13773;48.868;10.730;2022-11-24T09:31:29;7.40;;;3.37;;
25982;SDS011;13773;48.868;10.730;2022-11-24T09:34:00;9.07;;;3.57;;
25982;SDS011;13773;48.868;10.730;2022-11-24T09:36:27;9.67;;;3.10;;
25982;SDS011;13773;48.868;10.730;2022-11-24T09:38:53;7.23;;;2.80;;
25982;SDS011;13773;48.868;10.730;2022-11-24T09:41:25;7.03;;;2.47;;
25982;SDS011;13773;48.868;10.730;2022-11-24T09:58:14;8.93;;;4.67;;
25982;SDS011;13773;48.868;10.730;2022-11-24T10:00:54;8.10;;;3.63;;
25982;SDS011;13773;48.868;10.730;2022-11-24T10:03:34;11.27;;;3.23;;
25982;SDS011;13773;48.868;10.730;2022-11-24T10:06:09;11.07;;;3.60;;
25982;SDS011;13773;48.868;10.730;2022-11-24T10:11:24;5.70;;;2.40;;
25982;SDS011;13773;48.868;10.730;2022-11-24T10:19:47;6.73;;;3.20;;
25982;SDS011;13773;48.868;10.730;2022-11-24T10:22:21;7.60;;;2.67;;
25982;SDS011;13773;48.868;10.730;2022-11-24T10:27:35;5.20;;;2.47;;
25982;SDS011;13773;48.868;10.730;2022-11-24T10:30:16;6.40;;;2.27;;
25982;SDS011;13773;48.868;10.730;2022-11-24T10:32:48;7.03;;;2.30;;
25982;SDS011;13773;48.868;10.730;2022-11-24T10:35:20;3.83;;;1.60;;
25982;SDS011;13773;48.868;10.730;2022-11-24T10:37:50;4.77;;;1.90;;
25982;SDS011;13773;48.868;10.730;2022-11-24T10:43:27;5.57;;;2.00;;
25982;SDS011;13773;48.868;10.730;2022-11-24T10:45:54;5.13;;;2.00;;
25982;SDS011;13773;48.868;10.730;2022-11-24T10:48:49;5.43;;;2.10;;
25982;SDS011;13773;48.868;10.730;2022-11-24T10:54:16;5.63;;;2.33;;
25982;SDS011;13773;48.868;10.730;2022-11-24T10:56:44;7.43;;;2.93;;
25982;SDS011;13773;48.868;10.730;2022-11-24T11:01:49;4.50;;;2.10;;
25982;SDS011;13773;48.868;10.730;2022-11-24T11:04:19;5.70;;;2.70;;
25982;SDS011;13773;48.868;10.730;2022-11-24T11:06:49;3.93;;;1.43;;
25982;SDS011;13773;48.868;10.730;2022-11-24T11:11:44;4.63;;;1.53;;
25982;SDS011;13773;48.868;10.730;2022-11-24T11:14:12;7.07;;;1.40;;
25982;SDS011;13773;48.868;10.730;2022-11-24T11:16:56;3.47;;;1.20;;
25982;SDS011;13773;48.868;10.730;2022-11-24T11:19:33;3.37;;;1.30;;
25982;SDS011;13773;48.868;10.730;2022-11-24T11:24:40;2.70;;;1.30;;
25982;SDS011;13773;48.868;10.730;2022-11-24T11:27:18;3.33;;;1.27;;
25982;SDS011;13773;48.868;10.730;2022-11-24T11:29:44;4.73;;;1.50;;
25982;SDS011;13773;48.868;10.730;2022-11-24T11:32:17;5.77;;;1.47;;
25982;SDS011;13773;48.868;10.730;2022-11-24T11:34:48;3.97;;;1.10;;
25982;SDS011;13773;48.868;10.730;2022-11-24T11:37:16;5.60;;;1.30;;
25982;SDS011;13773;48.868;10.730;2022-11-24T11:39:50;3.37;;;1.27;;
25982;SDS011;13773;48.868;10.730;2022-11-24T11:47:43;3.40;;;1.50;;
25982;SDS011;13773;48.868;10.730;2022-11-24T11:50:14;3.00;;;1.50;;
25982;SDS011;13773;48.868;10.730;2022-11-24T11:58:54;5.80;;;1.43;;
25982;SDS011;13773;48.868;10.730;2022-11-24T12:01:25;4.87;;;1.30;;
25982;SDS011;13773;48.868;10.730;2022-11-24T12:21:22;3.87;;;1.67;;
25982;SDS011;13773;48.868;10.730;2022-11-24T12:32:42;1.87;;;1.10;;
25982;SDS011;13773;48.868;10.730;2022-11-24T12:43:58;4.60;;;1.37;;
25982;SDS011;13773;48.868;10.730;2022-11-24T12:52:00;4.23;;;1.67;;
25982;SDS011;13773;48.868;10.730;2022-11-24T12:54:34;4.43;;;1.93;;
25982;SDS011;13773;48.868;10.730;2022-11-24T12:57:26;5.43;;;1.63;;
25982;SDS011;13773;48.868;10.730;2022-11-24T13:07:38;6.50;;;2.63;;
25982;SDS011;13773;48.868;10.730;2022-11-24T13:15:24;4.60;;;2.27;;
25982;SDS011;13773;48.868;10.730;2022-11-24T13:17:51;5.00;;;1.40;;
25982;SDS011;13773;48.868;10.730;2022-11-24T13:25:13;3.93;;;1.93;;
25982;SDS011;13773;48.868;10.730;2022-11-24T13:27:43;2.90;;;1.30;;
25982;SDS011;13773;48.868;10.730;2022-11-24T13:32:58;4.53;;;1.50;;
25982;SDS011;13773;48.868;10.730;2022-11-24T13:35:36;3.20;;;1.60;;
25982;SDS011;13773;48.868;10.730;2022-11-24T13:38:38;3.17;;;1.30;;
25982;SDS011;13773;48.868;10.730;2022-11-24T13:41:07;7.33;;;2.20;;
25982;SDS011;13773;48.868;10.730;2022-11-24T13:43:35;4.60;;;2.13;;
25982;SDS011;13773;48.868;10.730;2022-11-24T13:46:01;4.77;;;2.60;;
25982;SDS011;13773;48.868;10.730;2022-11-24T13:55:53;6.53;;;2.47;;
25982;SDS011;13773;48.868;10.730;2022-11-24T13:58:44;3.90;;;1.77;;
25982;SDS011;13773;48.868;10.730;2022-11-24T14:06:44;4.67;;;2.60;;
25982;SDS011;13773;48.868;10.730;2022-11-24T14:09:27;5.60;;;2.47;;
25982;SDS011;13773;48.868;10.730;2022-11-24T14:12:20;6.40;;;1.57;;
25982;SDS011;13773;48.868;10.730;2022-11-24T14:14:51;7.97;;;2.80;;
25982;SDS011;13773;48.868;10.730;2022-11-24T14:19:48;4.93;;;2.73;;
25982;SDS011;13773;48.868;10.730;2022-11-24T14:24:59;5.80;;;2.40;;
25982;SDS011;13773;48.868;10.730;2022-11-24T14:32:33;7.53;;;2.70;;
25982;SDS011;13773;48.868;10.730;2022-11-24T14:34:59;4.27;;;2.10;;
25982;SDS011;13773;48.868;10.730;2022-11-24T14:37:25;7.67;;;2.70;;
25982;SDS011;13773;48.868;10.730;2022-11-24T14:39:51;5.97;;;2.43;;
25982;SDS011;13773;48.868;10.730;2022-11-24T14:44:48;5.93;;;3.90;;
25982;SDS011;13773;48.868;10.730;2022-11-24T14:47:35;5.33;;;2.97;;
25982;SDS011;13773;48.868;10.730;2022-11-24T14:50:16;8.17;;;3.13;;
25982;SDS011;13773;48.868;10.730;2022-11-24T14:52:56;8.50;;;3.07;;
25982;SDS011;13773;48.868;10.730;2022-11-24T14:55:23;6.27;;;2.87;;
25982;SDS011;13773;48.868;10.730;2022-11-24T14:57:54;6.87;;;2.53;;
25982;SDS011;13773;48.868;10.730;2022-11-24T15:05:48;6.87;;;3.30;;
25982;SDS011;13773;48.868;10.730;2022-11-24T15:08:26;7.53;;;4.30;;
25982;SDS011;13773;48.868;10.730;2022-11-24T15:10:58;10.67;;;3.87;;
25982;SDS011;13773;48.868;10.730;2022-11-24T15:13:26;5.30;;;2.80;;
25982;SDS011;13773;48.868;10.730;2022-11-24T15:15:56;9.80;;;4.07;;
25982;SDS011;13773;48.868;10.730;2022-11-24T15:18:25;8.67;;;3.87;;
25982;SDS011;13773;48.868;10.730;2022-11-24T15:20:55;4.60;;;3.00;;
25982;SDS011;13773;48.868;10.730;2022-11-24T15:25:50;6.27;;;2.70;;
25982;SDS011;13773;48.868;10.730;2022-11-24T15:28:17;6.87;;;2.10;;
25982;SDS011;13773;48.868;10.730;2022-11-24T15:30:48;4.47;;;1.87;;
25982;SDS011;13773;48.868;10.730;2022-11-24T15:33:15;4.73;;;1.73;;
25982;SDS011;13773;48.868;10.730;2022-11-24T15:35:43;4.07;;;1.97;;
25982;SDS011;13773;48.868;10.730;2022-11-24T15:38:09;4.60;;;2.30;;
25982;SDS011;13773;48.868;10.730;2022-11-24T15:40:39;5.50;;;2.50;;
25982;SDS011;13773;48.868;10.730;2022-11-24T15:43:49;4.77;;;2.37;;
25982;SDS011;13773;48.868;10.730;2022-11-24T15:45:58;7.37;;;2.33;;
25982;SDS011;13773;48.868;10.730;2022-11-24T15:48:25;7.27;;;2.67;;
25982;SDS011;13773;48.868;10.730;2022-11-24T15:50:50;7.03;;;2.50;;
25982;SDS011;13773;48.868;10.730;2022-11-24T15:55:44;8.80;;;3.20;;
25982;SDS011;13773;48.868;10.730;2022-11-24T15:58:11;5.80;;;2.73;;
25982;SDS011;13773;48.868;10.730;2022-11-24T16:00:38;8.50;;;3.20;;
25982;SDS011;13773;48.868;10.730;2022-11-24T16:03:04;4.90;;;3.00;;
25982;SDS011;13773;48.868;10.730;2022-11-24T16:05:30;8.73;;;3.60;;
25982;SDS011;13773;48.868;10.730;2022-11-24T16:07:56;6.47;;;3.27;;
25982;SDS011;13773;48.868;10.730;2022-11-24T16:10:27;8.20;;;3.53;;
25982;SDS011;13773;48.868;10.730;2022-11-24T16:12:55;9.33;;;4.10;;
25982;SDS011;13773;48.868;10.730;2022-11-24T16:15:21;9.30;;;4.33;;
25982;SDS011;13773;48.868;10.730;2022-11-24T16:17:47;6.10;;;3.53;;
25982;SDS011;13773;48.868;10.730;2022-11-24T16:20:12;9.90;;;3.23;;
25982;SDS011;13773;48.868;10.730;2022-11-24T16:22:40;6.83;;;2.77;;
25982;SDS011;13773;48.868;10.730;2022-11-24T16:25:15;6.67;;;2.30;;
25982;SDS011;13773;48.868;10.730;2022-11-24T16:27:55;9.33;;;3.60;;
25982;SDS011;13773;48.868;10.730;2022-11-24T16:30:21;11.90;;;2.97;;
25982;SDS011;13773;48.868;10.730;2022-11-24T16:32:47;7.83;;;2.53;;
25982;SDS011;13773;48.868;10.730;2022-11-24T16:35:13;5.13;;;2.10;;
25982;SDS011;13773;48.868;10.730;2022-11-24T16:37:39;6.07;;;2.07;;
25982;SDS011;13773;48.868;10.730;2022-11-24T16:40:05;4.83;;;2.00;;
25982;SDS011;13773;48.868;10.730;2022-11-24T16:42:31;6.23;;;1.70;;
25982;SDS011;13773;48.868;10.730;2022-11-24T16:44:57;5.03;;;2.20;;
25982;SDS011;13773;48.868;10.730;2022-11-24T16:47:23;5.57;;;2.20;;
25982;SDS011;13773;48.868;10.730;2022-11-24T16:49:48;6.70;;;2.43;;
25982;SDS011;13773;48.868;10.730;2022-11-24T16:52:15;6.37;;;2.50;;
25982;SDS011;13773;48.868;10.730;2022-11-24T16:54:41;6.63;;;2.57;;
25982;SDS011;13773;48.868;10.730;2022-11-24T16:57:09;6.00;;;2.50;;
25982;SDS011;13773;48.868;10.730;2022-11-24T16:59:36;10.33;;;2.57;;
25982;SDS011;13773;48.868;10.730;2022-11-24T17:02:02;6.80;;;2.37;;
25982;SDS011;13773;48.868;10.730;2022-11-24T17:04:28;8.80;;;2.40;;